createdAt,value
2024-01-05T00:00:09.819Z,94511.00
2024-01-05T00:01:09.909Z,94510.00
2024-01-05T00:02:11.564Z,94508.00
2024-01-05T00:03:09.961Z,94505.00
2024-01-05T00:04:10.087Z,94504.00
2024-01-05T00:05:09.953Z,94504.00
2024-01-05T00:06:10.110Z,94506.00
2024-01-05T00:07:10.125Z,94506.00
2024-01-05T00:08:10.082Z,94506.00
2024-01-05T00:09:10.154Z,94504.00
2024-01-05T00:10:10.213Z,94499.00
2024-01-05T00:11:10.201Z,94496.00
2024-01-05T00:12:10.319Z,94497.00
2024-01-05T00:13:10.317Z,94494.00
2024-01-05T00:14:10.371Z,94498.00
2024-01-05T00:15:10.775Z,94499.00
2024-01-05T00:16:10.442Z,94499.00
2024-01-05T00:17:11.197Z,94500.00
2024-01-05T00:18:10.700Z,94498.00
2024-01-05T00:19:10.753Z,94498.00
2024-01-05T00:20:10.767Z,94498.00
2024-01-05T00:21:10.703Z,94494.00
2024-01-05T00:22:10.657Z,94492.00
2024-01-05T00:23:10.801Z,94490.00
2024-01-05T00:24:10.809Z,94488.00
2024-01-05T00:25:10.793Z,94488.00
2024-01-05T00:26:10.809Z,94488.00
2024-01-05T00:27:10.841Z,94489.00
2024-01-05T00:28:10.845Z,94488.00
2024-01-05T00:29:10.882Z,94485.00
2024-01-05T00:30:10.981Z,94484.00
2024-01-05T00:31:10.981Z,94485.00
2024-01-05T00:32:10.973Z,94489.00
2024-01-05T00:33:11.164Z,94491.00
2024-01-05T00:34:11.105Z,94490.00
2024-01-05T00:35:11.084Z,94490.00
2024-01-05T00:36:11.124Z,94488.00
2024-01-05T00:37:11.114Z,94484.00
2024-01-05T00:38:11.206Z,94482.00
2024-01-05T00:39:11.226Z,94480.00
2024-01-05T00:40:11.309Z,94481.00
2024-01-05T00:41:11.353Z,94480.00
2024-01-05T00:42:11.512Z,94482.00
2024-01-05T00:43:11.668Z,94481.00
2024-01-05T00:44:11.640Z,94482.00
2024-01-05T00:45:11.727Z,94478.00
2024-01-05T00:46:11.756Z,94477.00
2024-01-05T00:47:11.793Z,94477.00
2024-01-05T00:48:11.971Z,94476.00
2024-01-05T00:49:12.055Z,94474.00
2024-01-05T00:50:12.138Z,94478.00
2024-01-05T00:51:12.224Z,94478.00
2024-01-05T00:52:12.252Z,94479.00
2024-01-05T00:53:12.356Z,94478.00
2024-01-05T00:54:12.477Z,94476.00
2024-01-05T00:55:12.562Z,94473.00
2024-01-05T00:56:12.568Z,94471.00
2024-01-05T00:57:12.688Z,94468.00
2024-01-05T00:58:12.769Z,94468.00
2024-01-05T00:59:12.816Z,94468.00
2024-01-05T01:00:12.949Z,94467.00
2024-01-05T01:01:13.115Z,94467.00
2024-01-05T01:02:13.106Z,94471.00
2024-01-05T01:03:13.298Z,94473.00
2024-01-05T01:04:13.454Z,94474.00
2024-01-05T01:05:13.345Z,94476.00
2024-01-05T01:06:13.411Z,94472.00
2024-01-05T01:07:14.375Z,94474.00
2024-01-05T01:08:13.481Z,94471.00
2024-01-05T01:09:13.514Z,94471.00
2024-01-05T01:10:13.473Z,94472.00
2024-01-05T01:11:13.557Z,94468.00
2024-01-05T01:12:13.550Z,94469.00
2024-01-05T01:13:13.639Z,94468.00
2024-01-05T01:14:13.611Z,94467.00
2024-01-05T01:15:13.775Z,94466.00
2024-01-05T01:16:13.751Z,94464.00
2024-01-05T01:17:13.782Z,94464.00
2024-01-05T01:18:14.588Z,94455.00
2024-01-05T01:19:13.967Z,94455.00
2024-01-05T01:20:13.860Z,94450.00
2024-01-05T01:21:14.025Z,94451.00
2024-01-05T01:22:14.044Z,94449.00
2024-01-05T01:23:14.113Z,94449.00
2024-01-05T01:24:14.270Z,94448.00
2024-01-05T01:25:14.312Z,94450.00
2024-01-05T01:26:14.413Z,94447.00
2024-01-05T01:27:14.590Z,94444.00
2024-01-05T01:28:14.655Z,94444.00
2024-01-05T01:29:14.740Z,94444.00
2024-01-05T01:30:15.086Z,94443.00
2024-01-05T01:31:14.975Z,94443.00
2024-01-05T01:32:15.066Z,94443.00
2024-01-05T01:33:15.190Z,94442.00
2024-01-05T01:34:15.311Z,94439.00
2024-01-05T01:35:15.306Z,94438.00
2024-01-05T01:36:15.409Z,94434.00
2024-01-05T01:37:15.424Z,94433.00
2024-01-05T01:38:15.462Z,94431.00
2024-01-05T01:39:15.469Z,94431.00
2024-01-05T01:40:15.513Z,94436.00
2024-01-05T01:41:15.519Z,94435.00
2024-01-05T01:42:15.647Z,94439.00
2024-01-05T01:43:15.671Z,94441.00
2024-01-05T01:44:15.655Z,94435.00
2024-01-05T01:45:15.710Z,94433.00
2024-01-05T01:46:15.687Z,94432.00
2024-01-05T01:47:15.721Z,94432.00
2024-01-05T01:48:15.909Z,94434.00
2024-01-05T01:49:15.934Z,94429.00
2024-01-05T01:50:15.902Z,94427.00
2024-01-05T01:51:16.023Z,94427.00
2024-01-05T01:52:16.069Z,94423.00
2024-01-05T01:53:16.230Z,94422.00
2024-01-05T01:54:16.264Z,94420.00
2024-01-05T01:55:16.298Z,94419.00
2024-01-05T01:56:16.521Z,94417.00
2024-01-05T01:57:16.515Z,94418.00
2024-01-05T01:58:16.578Z,94419.00
2024-01-05T01:59:16.602Z,94420.00
2024-01-05T02:00:16.759Z,94418.00
2024-01-05T02:01:16.806Z,94416.00
2024-01-05T02:02:16.801Z,94414.00
2024-01-05T02:03:16.924Z,94411.00
2024-01-05T02:04:17.076Z,94411.00
2024-01-05T02:05:17.064Z,94409.00
2024-01-05T02:06:17.079Z,94408.00
2024-01-05T02:07:17.119Z,94405.00
2024-01-05T02:08:17.170Z,94402.00
2024-01-05T02:09:17.228Z,94401.00
2024-01-05T02:10:17.208Z,94402.00
2024-01-05T02:11:17.304Z,94406.00
2024-01-05T02:12:17.401Z,94406.00
2024-01-05T02:13:17.413Z,94406.00
2024-01-05T02:14:17.464Z,94405.00
2024-01-05T02:15:17.483Z,94402.00
2024-01-05T02:16:17.631Z,94401.00
2024-01-05T02:17:17.601Z,94397.00
2024-01-05T02:18:17.830Z,94392.00
2024-01-05T02:19:17.799Z,94389.00
2024-01-05T02:20:17.780Z,94388.00
2024-01-05T02:21:17.831Z,94386.00
2024-01-05T02:22:17.837Z,94390.00
2024-01-05T02:23:17.890Z,94391.00
2024-01-05T02:24:17.988Z,94393.00
2024-01-05T02:25:18.009Z,94389.00
2024-01-05T02:26:18.160Z,94386.00
2024-01-05T02:27:18.137Z,94382.00
2024-01-05T02:28:18.327Z,94381.00
2024-01-05T02:29:18.339Z,94377.00
2024-01-05T02:30:18.410Z,94376.00
2024-01-05T02:31:18.400Z,94376.00
2024-01-05T02:32:18.451Z,94372.00
2024-01-05T02:33:18.655Z,94377.00
2024-01-05T02:34:18.744Z,94375.00
2024-01-05T02:35:18.577Z,94376.00
2024-01-05T02:36:18.607Z,94374.00
2024-01-05T02:37:18.632Z,94367.00
2024-01-05T02:38:18.634Z,94364.00
2024-01-05T02:39:18.738Z,94363.00
2024-01-05T02:40:18.822Z,94362.00
2024-01-05T02:41:18.959Z,94360.00
2024-01-05T02:42:19.114Z,94358.00
2024-01-05T02:43:19.152Z,94353.00
2024-01-05T02:44:19.266Z,94352.00
2024-01-05T02:45:20.211Z,94353.00
2024-01-05T02:46:19.497Z,94354.00
2024-01-05T02:47:19.551Z,94353.00
2024-01-05T02:48:19.724Z,94349.00
2024-01-05T02:49:19.769Z,94348.00
2024-01-05T02:50:20.672Z,94344.00
2024-01-05T02:51:19.833Z,94337.00
2024-01-05T02:52:19.824Z,94333.00
2024-01-05T02:53:19.860Z,94332.00
2024-01-05T02:54:19.977Z,94326.00
2024-01-05T02:55:19.943Z,94327.00
2024-01-05T02:56:20.051Z,94327.00
2024-01-05T02:57:20.078Z,94325.00
2024-01-05T02:58:20.072Z,94324.00
2024-01-05T02:59:20.170Z,94321.00
2024-01-05T03:00:20.250Z,94317.00
2024-01-05T03:01:20.252Z,94316.00
2024-01-05T03:02:20.296Z,94308.00
2024-01-05T03:03:20.469Z,94303.00
2024-01-05T03:04:20.550Z,94294.00
2024-01-05T03:05:20.644Z,94287.00
2024-01-05T03:06:20.837Z,94283.00
2024-01-05T03:07:20.750Z,94288.00
2024-01-05T03:08:20.878Z,94291.00
2024-01-05T03:09:21.120Z,94294.00
2024-01-05T03:10:21.066Z,94296.00
2024-01-05T03:11:21.210Z,94293.00
2024-01-05T03:12:21.343Z,94288.00
2024-01-05T03:13:21.409Z,94284.00
2024-01-05T03:14:21.434Z,94281.00
2024-01-05T03:15:21.688Z,94281.00
2024-01-05T03:16:21.639Z,94280.00
2024-01-05T03:17:21.834Z,94275.00
2024-01-05T03:18:21.968Z,94275.00
2024-01-05T03:19:22.067Z,94277.00
2024-01-05T03:20:22.168Z,94280.00
2024-01-05T03:21:22.195Z,94283.00
2024-01-05T03:22:22.263Z,94288.00
2024-01-05T03:23:22.398Z,94292.00
2024-01-05T03:24:22.670Z,94295.00
2024-01-05T03:25:22.803Z,94295.00
2024-01-05T03:26:22.524Z,94291.00
2024-01-05T03:27:22.664Z,94285.00
2024-01-05T03:28:22.647Z,94283.00
2024-01-05T03:29:22.651Z,94278.00
2024-01-05T03:30:22.798Z,94274.00
2024-01-05T03:31:22.809Z,94274.00
2024-01-05T03:32:22.880Z,94271.00
2024-01-05T03:33:23.098Z,94268.00
2024-01-05T03:34:23.165Z,94269.00
2024-01-05T03:35:23.188Z,94271.00
2024-01-05T03:36:23.222Z,94267.00
2024-01-05T03:37:23.290Z,94267.00
2024-01-05T03:38:23.508Z,94266.00
2024-01-05T03:39:23.451Z,94258.00
2024-01-05T03:40:23.526Z,94253.00
2024-01-05T03:41:23.830Z,94249.00
2024-01-05T03:42:23.697Z,94249.00
2024-01-05T03:43:24.383Z,94250.00
2024-01-05T03:44:23.798Z,94252.00
2024-01-05T03:45:24.015Z,94253.00
2024-01-05T03:46:24.001Z,94254.00
2024-01-05T03:47:24.101Z,94249.00
2024-01-05T03:48:24.279Z,94246.00
2024-01-05T03:49:24.363Z,94244.00
2024-01-05T03:50:24.388Z,94238.00
2024-01-05T03:51:24.546Z,94232.00
2024-01-05T03:52:24.641Z,94229.00
2024-01-05T03:53:24.736Z,94225.00
2024-01-05T03:54:24.811Z,94221.00
2024-01-05T03:55:24.985Z,94218.00
2024-01-05T03:56:24.978Z,94219.00
2024-01-05T03:57:25.145Z,94222.00
2024-01-05T03:58:25.119Z,94224.00
2024-01-05T03:59:25.191Z,94228.00
2024-01-05T04:00:25.250Z,94227.00
2024-01-05T04:01:25.444Z,94230.00
2024-01-05T04:02:25.461Z,94228.00
2024-01-05T04:03:25.599Z,94228.00
2024-01-05T04:04:25.603Z,94228.00
2024-01-05T04:05:25.621Z,94227.00
2024-01-05T04:06:25.665Z,94224.00
2024-01-05T04:07:25.698Z,94218.00
2024-01-05T04:08:25.681Z,94214.00
2024-01-05T04:09:25.805Z,94210.00
2024-01-05T04:10:25.810Z,94208.00
2024-01-05T04:11:25.827Z,94207.00
2024-01-05T04:12:25.936Z,94207.00
2024-01-05T04:13:26.019Z,94203.00
2024-01-05T04:14:26.096Z,94203.00
2024-01-05T04:15:26.027Z,94200.00
2024-01-05T04:16:26.039Z,94201.00
2024-01-05T04:17:26.225Z,94197.00
2024-01-05T04:18:26.362Z,94193.00
2024-01-05T04:19:26.472Z,94190.00
2024-01-05T04:20:26.438Z,94186.00
2024-01-05T04:21:26.627Z,94182.00
2024-01-05T04:22:26.691Z,94181.00
2024-01-05T04:23:26.828Z,94185.00
2024-01-05T04:24:26.830Z,94181.00
2024-01-05T04:25:26.941Z,94177.00
2024-01-05T04:26:27.090Z,94178.00
2024-01-05T04:27:27.097Z,94177.00
2024-01-05T04:28:27.160Z,94176.00
2024-01-05T04:29:27.172Z,94171.00
2024-01-05T04:30:27.308Z,94169.00
2024-01-05T04:31:27.315Z,94170.00
2024-01-05T04:32:27.367Z,94169.00
2024-01-05T04:33:27.488Z,94168.00
2024-01-05T04:34:27.726Z,94167.00
2024-01-05T04:35:27.518Z,94163.00
2024-01-05T04:36:27.653Z,94155.00
2024-01-05T04:37:27.619Z,94149.00
2024-01-05T04:38:27.808Z,94149.00
2024-01-05T04:39:27.793Z,94153.00
2024-01-05T04:40:27.727Z,94163.00
2024-01-05T04:41:27.767Z,94172.00
2024-01-05T04:42:28.416Z,94179.00
2024-01-05T04:43:27.877Z,94181.00
2024-01-05T04:44:27.867Z,94176.00
2024-01-05T04:45:28.364Z,94177.00
2024-01-05T04:46:27.978Z,94172.00
2024-01-05T04:47:28.174Z,94166.00
2024-01-05T04:48:28.192Z,94159.00
2024-01-05T04:49:28.316Z,94151.00
2024-01-05T04:50:28.209Z,94149.00
2024-01-05T04:51:28.316Z,94157.00
2024-01-05T04:52:28.278Z,94165.00
2024-01-05T04:53:28.462Z,94171.00
2024-01-05T04:54:28.439Z,94177.00
2024-01-05T04:55:28.446Z,94173.00
2024-01-05T04:56:28.543Z,94161.00
2024-01-05T04:57:36.245Z,94150.00
2024-01-05T04:58:36.124Z,94150.00
2024-01-05T04:59:36.077Z,94160.00
2024-01-05T05:00:36.242Z,94167.00
2024-01-05T05:01:36.159Z,94160.00
2024-01-05T05:02:36.123Z,94143.00
2024-01-05T05:03:36.307Z,94138.00
2024-01-05T05:04:36.067Z,94151.00
2024-01-05T05:05:36.093Z,94159.00
2024-01-05T05:06:36.139Z,94160.00
2024-01-05T05:07:36.588Z,94153.00
2024-01-05T05:08:36.094Z,94145.00
2024-01-05T05:09:36.075Z,94133.00
2024-01-05T05:10:36.033Z,94133.00
2024-01-05T05:11:35.990Z,94136.00
2024-01-05T05:12:36.107Z,94140.00
2024-01-05T05:13:36.030Z,94141.00
2024-01-05T05:14:35.945Z,94143.00
2024-01-05T05:15:35.995Z,94146.00
2024-01-05T05:16:36.062Z,94154.00
2024-01-05T05:17:36.016Z,94163.00
2024-01-05T05:18:36.187Z,94166.00
2024-01-05T05:19:36.023Z,94162.00
2024-01-05T05:20:35.997Z,94155.00
2024-01-05T05:21:35.959Z,94155.00
2024-01-05T05:22:35.936Z,94160.00
2024-01-05T05:23:35.916Z,94161.00
2024-01-05T05:24:35.991Z,94160.00
2024-01-05T05:25:35.852Z,94156.00
2024-01-05T05:26:35.832Z,94158.00
2024-01-05T05:27:36.004Z,94157.00
2024-01-05T05:28:35.846Z,94142.00
2024-01-05T05:29:35.739Z,94135.00
2024-01-05T05:30:35.790Z,94139.00
2024-01-05T05:31:35.792Z,94153.00
2024-01-05T05:32:35.679Z,94154.00
2024-01-05T05:33:35.814Z,94145.00
2024-01-05T05:34:35.811Z,94145.00
2024-01-05T05:35:35.590Z,94152.00
2024-01-05T05:36:35.616Z,94160.00
2024-01-05T05:37:35.620Z,94159.00
2024-01-05T05:38:35.568Z,94154.00
2024-01-05T05:39:35.646Z,94147.00
2024-01-05T05:40:35.504Z,94146.00
2024-01-05T05:41:35.536Z,94151.00
2024-01-05T05:42:35.561Z,94156.00
2024-01-05T05:43:35.495Z,94149.00
2024-01-05T05:44:35.550Z,94142.00
2024-01-05T05:45:35.516Z,94137.00
2024-01-05T05:46:35.395Z,94133.00
2024-01-05T05:47:35.526Z,94133.00
2024-01-05T05:48:35.424Z,94140.00
2024-01-05T05:49:35.498Z,94138.00
2024-01-05T05:50:35.358Z,94142.00
2024-01-05T05:51:35.316Z,94146.00
2024-01-05T05:52:35.274Z,94142.00
2024-01-05T05:53:35.249Z,94131.00
2024-01-05T05:54:35.292Z,94124.00
2024-01-05T05:55:35.239Z,94128.00
2024-01-05T05:56:35.312Z,94136.00
2024-01-05T05:57:35.351Z,94137.00
2024-01-05T05:58:36.075Z,94128.00
2024-01-05T05:59:35.343Z,94117.00
2024-01-05T06:00:35.647Z,94106.00
2024-01-05T06:01:58.508Z,94110.00
2024-01-05T06:02:35.576Z,94121.00
2024-01-05T06:03:35.574Z,94121.00
2024-01-05T06:04:35.500Z,94114.00
2024-01-05T06:05:35.430Z,94101.00
2024-01-05T06:06:35.576Z,94101.00
2024-01-05T06:07:35.400Z,94106.00
2024-01-05T06:08:35.395Z,94108.00
2024-01-05T06:09:35.464Z,94106.00
2024-01-05T06:10:35.320Z,94102.00
2024-01-05T06:11:35.330Z,94094.00
2024-01-05T06:12:35.267Z,94089.00
2024-01-05T06:13:36.694Z,94098.00
2024-01-05T06:14:35.276Z,94111.00
2024-01-05T06:15:35.356Z,94126.00
2024-01-05T06:16:35.174Z,94120.00
2024-01-05T06:17:35.238Z,94118.00
2024-01-05T06:18:35.241Z,94123.00
2024-01-05T06:19:35.356Z,94126.00
2024-01-05T06:20:35.110Z,94127.00
2024-01-05T06:21:35.167Z,94124.00
2024-01-05T06:22:35.268Z,94118.00
2024-01-05T06:23:35.094Z,94116.00
2024-01-05T06:24:35.283Z,94117.00
2024-01-05T06:25:35.019Z,94123.00
2024-01-05T06:26:35.034Z,94129.00
2024-01-05T06:27:38.990Z,94127.00
2024-01-05T06:28:35.957Z,94116.00
2024-01-05T06:29:35.072Z,94106.00
2024-01-05T06:30:34.839Z,94110.00
2024-01-05T06:31:34.855Z,94123.00
2024-01-05T06:32:34.787Z,94127.00
2024-01-05T06:33:35.045Z,94121.00
2024-01-05T06:34:34.991Z,94117.00
2024-01-05T06:35:34.823Z,94116.00
2024-01-05T06:36:34.862Z,94111.00
2024-01-05T06:37:34.797Z,94110.00
2024-01-05T06:38:34.819Z,94112.00
2024-01-05T06:39:34.883Z,94110.00
2024-01-05T06:40:34.886Z,94108.00
2024-01-05T06:41:34.812Z,94107.00
2024-01-05T06:42:34.892Z,94109.00
2024-01-05T06:43:34.765Z,94109.00
2024-01-05T06:44:34.745Z,94116.00
2024-01-05T06:45:34.844Z,94114.00
2024-01-05T06:48:05.737Z,94099.00
2024-01-05T06:48:41.582Z,94099.00
2024-01-05T06:49:40.802Z,94099.00
2024-01-05T06:50:41.088Z,94098.00
2024-01-05T06:51:42.149Z,94097.00
2024-01-05T06:52:40.501Z,94094.00
2024-01-05T06:53:40.468Z,94093.00
2024-01-05T06:54:40.948Z,94089.00
2024-01-05T06:55:41.149Z,94098.00
2024-01-05T06:56:40.634Z,94103.00
2024-01-05T06:57:40.376Z,94109.00
2024-01-05T06:58:40.244Z,94108.00
2024-01-05T06:59:40.176Z,94106.00
2024-01-05T07:00:41.331Z,94107.00
2024-01-05T07:01:40.052Z,94110.00
2024-01-05T07:02:40.507Z,94110.00
2024-01-05T07:03:40.037Z,94110.00
2024-01-05T07:04:40.041Z,94094.00
2024-01-05T07:05:40.138Z,94092.00
2024-01-05T07:06:40.012Z,94088.00
2024-01-05T07:07:39.991Z,94086.00
2024-01-05T07:08:39.822Z,94084.00
2024-01-05T07:09:40.235Z,94081.00
2024-01-05T07:10:39.897Z,94080.00
2024-01-05T07:11:40.219Z,94082.00
2024-01-05T07:12:39.976Z,94080.00
2024-01-05T07:13:39.937Z,94083.00
2024-01-05T07:14:40.503Z,94091.00
2024-01-05T07:15:40.479Z,94094.00
2024-01-05T07:16:40.055Z,94094.00
2024-01-05T07:17:40.189Z,94092.00
2024-01-05T07:18:40.076Z,94091.00
2024-01-05T07:19:40.144Z,94089.00
2024-01-05T07:20:40.075Z,94091.00
2024-01-05T07:21:40.184Z,94088.00
2024-01-05T07:22:40.817Z,94083.00
2024-01-05T07:23:40.211Z,94083.00
2024-01-05T07:26:07.337Z,94094.00
2024-01-05T07:26:44.622Z,94083.00
2024-01-05T07:27:44.628Z,94076.00
2024-01-05T07:28:44.666Z,94086.00
2024-01-05T07:29:44.636Z,94094.00
2024-01-05T07:30:44.670Z,94095.00
2024-01-05T07:31:44.954Z,94087.00
2024-01-05T07:32:44.684Z,94073.00
2024-01-05T07:33:44.701Z,94077.00
2024-01-05T07:34:44.623Z,94076.00
2024-01-05T07:35:44.616Z,94073.00
2024-01-05T07:36:44.621Z,94067.00
2024-01-05T07:37:44.615Z,94070.00
2024-01-05T07:38:44.634Z,94069.00
2024-01-05T07:39:44.645Z,94077.00
2024-01-05T07:40:44.653Z,94091.00
2024-01-05T07:41:44.867Z,94091.00
2024-01-05T07:42:44.700Z,94087.00
2024-01-05T07:43:44.748Z,94079.00
2024-01-05T07:44:44.866Z,94074.00
2024-01-05T07:45:44.888Z,94079.00
2024-01-05T07:46:46.843Z,94076.00
2024-01-05T07:47:45.045Z,94069.00
2024-01-05T07:48:45.162Z,94074.00
2024-01-05T07:49:45.396Z,94078.00
2024-01-05T07:50:45.219Z,94077.00
2024-01-05T07:51:45.688Z,94081.00
2024-01-05T07:52:45.213Z,94085.00
2024-01-05T07:53:45.313Z,94086.00
2024-01-05T07:54:45.369Z,94080.00
2024-01-05T07:55:45.327Z,94068.00
2024-01-05T07:56:45.336Z,94065.00
2024-01-05T07:57:48.340Z,94074.00
2024-01-05T07:58:45.362Z,94085.00
2024-01-05T07:59:45.379Z,94093.00
2024-01-05T08:00:45.603Z,94094.00
2024-01-05T08:01:45.543Z,94083.00
2024-01-05T08:02:45.311Z,94074.00
2024-01-05T08:03:45.366Z,94070.00
2024-01-05T08:04:45.305Z,94073.00
2024-01-05T08:05:47.538Z,94073.00
2024-01-05T08:06:45.676Z,94071.00
2024-01-05T08:07:46.227Z,94067.00
2024-01-05T08:08:45.644Z,94057.00
2024-01-05T08:09:45.723Z,94059.00
2024-01-05T08:10:45.750Z,94057.00
2024-01-05T08:11:46.098Z,94056.00
2024-01-05T08:12:45.888Z,94058.00
2024-01-05T08:13:45.985Z,94059.00
2024-01-05T08:14:45.990Z,94062.00
2024-01-05T08:15:46.014Z,94064.00
2024-01-05T08:16:45.958Z,94071.00
2024-01-05T08:17:46.083Z,94073.00
2024-01-05T08:18:46.069Z,94077.00
2024-01-05T08:19:46.100Z,94073.00
2024-01-05T08:20:46.699Z,94064.00
2024-01-05T08:21:46.633Z,94057.00
2024-01-05T08:22:46.097Z,94055.00
2024-01-05T08:23:46.178Z,94040.00
2024-01-05T08:24:46.218Z,94058.00
2024-01-05T08:25:46.280Z,94065.00
2024-01-05T08:26:46.289Z,94075.00
2024-01-05T08:27:46.380Z,94069.00
2024-01-05T08:28:46.419Z,94065.00
2024-01-05T08:29:46.350Z,94065.00
2024-01-05T08:30:46.528Z,94060.00
2024-01-05T08:31:47.044Z,94059.00
2024-01-05T08:32:46.557Z,94056.00
2024-01-05T08:33:46.749Z,94047.00
2024-01-05T08:34:46.744Z,94042.00
2024-01-05T08:35:46.640Z,94041.00
2024-01-05T08:36:46.647Z,94056.00
2024-01-05T08:37:46.634Z,94051.00
2024-01-05T08:38:46.659Z,94052.00
2024-01-05T08:39:46.740Z,94050.00
2024-01-05T08:40:46.663Z,94042.00
2024-01-05T08:41:46.662Z,94041.00
2024-01-05T08:42:46.752Z,94045.00
2024-01-05T08:43:46.737Z,94050.00
2024-01-05T08:44:46.892Z,94051.00
2024-01-05T08:45:47.006Z,94054.00
2024-01-05T08:46:46.904Z,94058.00
2024-01-05T08:47:46.878Z,94059.00
2024-01-05T08:48:47.000Z,94060.00
2024-01-05T08:49:47.392Z,94052.00
2024-01-05T08:50:46.733Z,94045.00
2024-01-05T08:51:46.794Z,94050.00
2024-01-05T08:52:46.863Z,94059.00
2024-01-05T08:53:46.871Z,94057.00
2024-01-05T08:54:50.259Z,94046.00
2024-01-05T08:55:46.872Z,94052.00
2024-01-05T08:56:46.871Z,94057.00
2024-01-05T08:57:46.830Z,94047.00
2024-01-05T08:58:46.809Z,94039.00
2024-01-05T08:59:46.800Z,94038.00
2024-01-05T09:00:46.764Z,94045.00
2024-01-05T09:01:46.754Z,94052.00
2024-01-05T09:02:46.764Z,94052.00
2024-01-05T09:03:46.775Z,94058.00
2024-01-05T09:04:46.761Z,94051.00
2024-01-05T09:05:46.608Z,94042.00
2024-01-05T09:06:46.621Z,94041.00
2024-01-05T09:07:46.591Z,94043.00
2024-01-05T09:08:46.567Z,94042.00
2024-01-05T09:09:46.630Z,94044.00
2024-01-05T09:10:46.587Z,94050.00
2024-01-05T09:11:46.588Z,94040.00
2024-01-05T09:12:46.526Z,94035.00
2024-01-05T09:13:46.483Z,94040.00
2024-01-05T09:14:46.510Z,94045.00
2024-01-05T09:15:46.514Z,94045.00
2024-01-05T09:16:46.407Z,94052.00
2024-01-05T09:17:46.458Z,94045.00
2024-01-05T09:18:46.506Z,94047.00
2024-01-05T09:19:46.402Z,94055.00
2024-01-05T09:20:46.436Z,94050.00
2024-01-05T09:21:46.473Z,94047.00
2024-01-05T09:22:46.347Z,94054.00
2024-01-05T09:23:46.360Z,94064.00
2024-01-05T09:24:46.315Z,94063.00
2024-01-05T09:25:46.772Z,94062.00
2024-01-05T09:26:46.184Z,94058.00
2024-01-05T09:27:46.262Z,94050.00
2024-01-05T09:28:46.089Z,94049.00
2024-01-05T09:29:46.098Z,94043.00
2024-01-05T09:30:46.104Z,94030.00
2024-01-05T09:31:46.072Z,94035.00
2024-01-05T09:32:46.033Z,94041.00
2024-01-05T09:33:46.059Z,94054.00
2024-01-05T09:34:46.111Z,94059.00
2024-01-05T09:35:45.824Z,94059.00
2024-01-05T09:36:46.018Z,94048.00
2024-01-05T09:37:45.937Z,94046.00
2024-01-05T09:38:45.955Z,94055.00
2024-01-05T09:39:46.008Z,94059.00
2024-01-05T09:40:45.857Z,94055.00
2024-01-05T09:41:45.871Z,94049.00
2024-01-05T09:42:45.943Z,94056.00
2024-01-05T09:43:45.886Z,94055.00
2024-01-05T09:44:45.897Z,94049.00
2024-01-05T09:45:45.920Z,94056.00
2024-01-05T09:46:45.714Z,94052.00
2024-01-05T09:47:45.862Z,94042.00
2024-01-05T09:48:51.393Z,94042.00
2024-01-05T09:49:46.999Z,94047.00
2024-01-05T09:50:45.653Z,94050.00
2024-01-05T09:51:45.591Z,94041.00
2024-01-05T09:52:45.548Z,94039.00
2024-01-05T09:53:45.453Z,94044.00
2024-01-05T09:54:45.498Z,94040.00
2024-01-05T09:55:45.470Z,94034.00
2024-01-05T09:56:45.368Z,94036.00
2024-01-05T09:57:45.448Z,94040.00
2024-01-05T09:58:45.325Z,94040.00
2024-01-05T09:59:45.279Z,94043.00
2024-01-05T10:00:45.433Z,94038.00
2024-01-05T10:01:45.304Z,94018.00
2024-01-05T10:02:45.227Z,94016.00
2024-01-05T10:03:45.375Z,94027.00
2024-01-05T10:04:45.491Z,94047.00
2024-01-05T10:05:45.259Z,94046.00
2024-01-05T10:06:45.278Z,94029.00
2024-01-05T10:07:45.283Z,94027.00
2024-01-05T10:08:45.153Z,94035.00
2024-01-05T10:09:45.287Z,94029.00
2024-01-05T10:10:45.314Z,94029.00
2024-01-05T10:11:45.176Z,94039.00
2024-01-05T10:12:45.106Z,94035.00
2024-01-05T10:13:45.063Z,94033.00
2024-01-05T10:14:44.982Z,94027.00
2024-01-05T10:15:45.054Z,94019.00
2024-01-05T10:16:44.904Z,94022.00
2024-01-05T10:17:45.067Z,94034.00
2024-01-05T10:18:44.919Z,94033.00
2024-01-05T10:19:44.977Z,94034.00
2024-01-05T10:20:44.709Z,94034.00
2024-01-05T10:21:44.831Z,94029.00
2024-01-05T10:22:44.736Z,94016.00
2024-01-05T10:23:44.759Z,94014.00
2024-01-05T10:24:44.743Z,94014.00
2024-01-05T10:25:44.534Z,94009.00
2024-01-05T10:26:44.554Z,94006.00
2024-01-05T10:27:44.611Z,94004.00
2024-01-05T10:28:44.454Z,94008.00
2024-01-05T10:29:45.246Z,94004.00
2024-01-05T10:30:44.483Z,93995.00
2024-01-05T10:31:44.414Z,93982.00
2024-01-05T10:32:44.393Z,93983.00
2024-01-05T10:33:44.444Z,94005.00
2024-01-05T10:34:44.469Z,94017.00
2024-01-05T10:35:47.127Z,94007.00
2024-01-05T10:36:44.170Z,93982.00
2024-01-05T10:37:44.161Z,93964.00
2024-01-05T10:38:44.004Z,93966.00
2024-01-05T10:39:43.920Z,93971.00
2024-01-05T10:40:43.919Z,93976.00
2024-01-05T10:41:47.587Z,93980.00
2024-01-05T10:42:43.797Z,93987.00
2024-01-05T10:43:43.746Z,93993.00
2024-01-05T10:44:43.643Z,93992.00
2024-01-05T10:45:43.692Z,93981.00
2024-01-05T10:46:43.432Z,93982.00
2024-01-05T10:47:44.993Z,93989.00
2024-01-05T10:48:43.382Z,93987.00
2024-01-05T10:49:43.337Z,93977.00
2024-01-05T10:50:43.177Z,93975.00
2024-01-05T10:51:43.153Z,93970.00
2024-01-05T10:52:42.980Z,93964.00
2024-01-05T10:53:42.994Z,93962.00
2024-01-05T10:54:42.939Z,93966.00
2024-01-05T10:55:42.883Z,93968.00
2024-01-05T10:56:42.799Z,93968.00
2024-01-05T10:57:42.786Z,93971.00
2024-01-05T10:58:42.630Z,93964.00
2024-01-05T10:59:42.639Z,93967.00
2024-01-05T11:00:42.680Z,93978.00
2024-01-05T11:01:42.530Z,93984.00
2024-01-05T11:02:42.996Z,93973.00
2024-01-05T11:03:42.383Z,93961.00
2024-01-05T11:04:42.319Z,93967.00
2024-01-05T11:05:42.485Z,93979.00
2024-01-05T11:06:42.219Z,93968.00
2024-01-05T11:07:42.829Z,93951.00
2024-01-05T11:08:41.972Z,93964.00
2024-01-05T11:09:41.997Z,93971.00
2024-01-05T11:10:41.860Z,93970.00
2024-01-05T11:11:41.755Z,93970.00
2024-01-05T11:12:41.812Z,93967.00
2024-01-05T11:13:57.806Z,93971.00
2024-01-05T11:14:57.939Z,93968.00
2024-01-05T11:15:57.889Z,93970.00
2024-01-05T11:16:57.798Z,93972.00
2024-01-05T11:17:58.030Z,93967.00
2024-01-05T11:18:58.102Z,93956.00
2024-01-05T11:19:58.070Z,93946.00
2024-01-05T11:20:57.944Z,93949.00
2024-01-05T11:21:57.926Z,93959.00
2024-01-05T11:22:57.954Z,93958.00
2024-01-05T11:23:58.000Z,93956.00
2024-01-05T11:24:58.109Z,93953.00
2024-01-05T11:25:57.966Z,93949.00
2024-01-05T11:26:58.008Z,93953.00
2024-01-05T11:27:57.980Z,93954.00
2024-01-05T11:28:58.060Z,93951.00
2024-01-05T11:29:58.011Z,93941.00
2024-01-05T11:30:58.065Z,93935.00
2024-01-05T11:31:58.013Z,93924.00
2024-01-05T11:32:58.025Z,93924.00
2024-01-05T11:33:58.209Z,93933.00
2024-01-05T11:34:58.070Z,93938.00
2024-01-05T11:35:58.057Z,93931.00
2024-01-05T11:36:58.027Z,93925.00
2024-01-05T11:37:58.037Z,93915.00
2024-01-05T11:38:58.708Z,93903.00
2024-01-05T11:39:58.067Z,93895.00
2024-01-05T11:40:58.055Z,93900.00
2024-01-05T11:41:58.114Z,93904.00
2024-01-05T11:42:58.075Z,93902.00
2024-01-05T11:43:58.077Z,93895.00
2024-01-05T11:44:58.269Z,93887.00
2024-01-05T11:45:58.095Z,93884.00
2024-01-05T11:46:58.074Z,93888.00